createdAt,value
2023-02-24T00:00:32.656Z,6.70
2023-02-24T00:05:36.707Z,11.57
2023-02-24T00:10:38.790Z,6.60
2023-02-24T00:15:41.019Z,9.93
2023-02-24T00:20:43.116Z,9.77
2023-02-24T00:25:45.342Z,11.77
2023-02-24T00:30:47.599Z,7.85
2023-02-24T00:35:50.699Z,7.05
2023-02-24T00:40:52.980Z,8.20
2023-02-24T00:45:55.135Z,12.68
2023-02-24T00:50:57.226Z,11.55
2023-02-24T00:56:02.714Z,8.57
2023-02-24T01:01:05.483Z,5.55
2023-02-24T01:06:08.203Z,7.43
2023-02-24T01:11:28.925Z,7.47
2023-02-24T01:16:31.053Z,6.45
2023-02-24T01:21:33.193Z,7.95
2023-02-24T01:26:35.302Z,7.63
2023-02-24T01:31:42.819Z,8.63
2023-02-24T01:36:47.396Z,7.72
2023-02-24T01:41:50.881Z,5.07
2023-02-24T01:46:53.818Z,8.38
2023-02-24T01:52:03.058Z,5.10
2023-02-24T01:57:08.101Z,10.45
2023-02-24T02:02:10.979Z,12.25
2023-02-24T02:07:18.619Z,8.52
2023-02-24T02:12:21.004Z,6.63
2023-02-24T02:17:58.803Z,8.98
2023-02-24T02:23:12.988Z,9.25
2023-02-24T02:28:46.073Z,13.50
2023-02-24T02:33:51.223Z,9.85
2023-02-24T02:39:03.241Z,6.07
2023-02-24T02:44:21.239Z,5.97
2023-02-24T02:49:38.731Z,8.25
2023-02-24T02:54:56.648Z,10.15
2023-02-24T03:00:13.783Z,6.55
2023-02-24T03:05:20.495Z,7.43
2023-02-24T03:10:27.809Z,8.40
2023-02-24T03:15:32.897Z,4.70
2023-02-24T03:20:42.978Z,7.05
2023-02-24T03:25:53.379Z,8.75
2023-02-24T03:31:04.233Z,7.80
2023-02-24T03:36:07.183Z,7.60
2023-02-24T03:41:13.580Z,10.60
2023-02-24T03:46:19.333Z,9.70
2023-02-24T03:51:26.668Z,4.85
2023-02-24T03:56:46.691Z,8.05
2023-02-24T04:01:58.216Z,9.90
2023-02-24T04:07:16.507Z,10.10
2023-02-24T04:12:27.213Z,9.40
2023-02-24T04:17:59.837Z,6.97
2023-02-24T04:23:17.676Z,12.90
2023-02-24T04:28:23.500Z,8.80
2023-02-24T04:33:27.621Z,8.13
2023-02-24T04:38:29.981Z,6.07
2023-02-24T04:43:33.150Z,9.77
2023-02-24T04:48:35.524Z,12.63
2023-02-24T04:53:38.179Z,10.40
2023-02-24T04:58:41.276Z,10.85
2023-02-24T05:03:43.592Z,7.90
2023-02-24T05:08:45.724Z,7.95
2023-02-24T05:13:47.856Z,7.75
2023-02-24T05:18:50.000Z,5.82
2023-02-24T05:23:54.682Z,12.35
2023-02-24T05:28:59.769Z,7.38
2023-02-24T05:34:05.184Z,6.45
2023-02-24T05:39:09.397Z,8.98
2023-02-24T05:44:13.853Z,9.48
2023-02-24T05:49:23.609Z,10.25
2023-02-24T05:54:29.946Z,8.75
2023-02-24T05:59:33.261Z,8.77
2023-02-24T06:04:45.984Z,6.57
2023-02-24T06:09:53.942Z,5.63
2023-02-24T06:14:58.220Z,6.55
2023-02-24T06:20:00.572Z,13.95
2023-02-24T06:25:05.391Z,7.70
2023-02-24T06:30:10.633Z,9.65
2023-02-24T06:35:12.900Z,6.72
2023-02-24T06:40:17.875Z,8.95
2023-02-24T06:45:20.969Z,10.05
2023-02-24T06:50:23.477Z,6.80
2023-02-24T06:55:25.737Z,10.32
2023-02-24T07:00:39.139Z,7.20
2023-02-24T07:06:12.386Z,5.97
2023-02-24T07:11:17.905Z,8.00
2023-02-24T07:16:25.284Z,8.32
2023-02-24T07:21:30.234Z,7.93
2023-02-24T07:26:32.388Z,10.82
2023-02-24T07:31:35.799Z,10.40
2023-02-24T07:36:49.371Z,7.38
2023-02-24T07:41:57.281Z,9.20
2023-02-24T07:46:59.543Z,11.95
2023-02-24T07:52:02.051Z,9.50
2023-02-24T07:57:05.901Z,6.13
2023-02-24T08:02:11.467Z,8.65
2023-02-24T08:07:14.685Z,9.88
2023-02-24T08:12:22.644Z,9.52
2023-02-24T08:17:26.789Z,9.68
2023-02-24T08:22:37.507Z,10.30
2023-02-24T08:27:42.382Z,9.02
2023-02-24T08:32:45.032Z,9.80
2023-02-24T08:37:50.330Z,14.27
2023-02-24T08:42:52.403Z,9.60
2023-02-24T08:48:00.673Z,9.18
2023-02-24T08:53:02.985Z,12.68
2023-02-24T08:58:11.131Z,6.50
2023-02-24T09:03:16.448Z,11.45
2023-02-24T09:08:24.171Z,12.15
2023-02-24T09:13:33.182Z,10.35
2023-02-24T09:18:38.574Z,8.85
2023-02-24T09:23:46.190Z,12.20
2023-02-24T09:28:55.739Z,10.45
2023-02-24T09:34:01.785Z,10.77
2023-02-24T09:39:03.986Z,9.68
2023-02-24T09:44:18.599Z,9.75
2023-02-24T09:49:27.558Z,9.50
2023-02-24T09:54:38.279Z,9.10
2023-02-24T09:59:51.129Z,10.30
2023-02-24T10:05:11.477Z,12.95
2023-02-24T10:10:28.849Z,9.35
2023-02-24T10:15:57.788Z,9.07
2023-02-24T10:21:18.166Z,13.20
2023-02-24T10:26:33.454Z,10.15
2023-02-24T10:31:48.426Z,12.88
2023-02-24T10:36:51.130Z,10.40
2023-02-24T10:42:15.953Z,13.30
2023-02-24T10:47:31.226Z,12.18
2023-02-24T10:52:57.672Z,14.43
2023-02-24T10:58:06.518Z,12.25
2023-02-24T11:03:22.091Z,12.60
2023-02-24T11:08:47.173Z,11.18
2023-02-24T11:14:12.485Z,12.18
2023-02-24T11:19:15.840Z,10.38
2023-02-24T11:24:19.546Z,11.57
2023-02-24T11:29:36.706Z,12.52
2023-02-24T11:34:58.229Z,7.68
2023-02-24T11:40:35.615Z,10.55
2023-02-24T11:45:51.740Z,8.75
2023-02-24T11:51:15.476Z,7.60
2023-02-24T11:56:28.215Z,8.77
2023-02-24T12:01:40.472Z,8.93
2023-02-24T12:07:18.899Z,9.57
2023-02-24T12:12:51.013Z,11.70
2023-02-24T12:18:25.546Z,10.18
2023-02-24T12:23:37.621Z,10.52
2023-02-24T12:28:49.573Z,10.13
2023-02-24T12:34:00.402Z,14.55
2023-02-24T12:39:11.386Z,14.13
2023-02-24T12:44:25.562Z,8.52
2023-02-24T12:49:42.930Z,8.32
2023-02-24T12:55:06.527Z,7.72
2023-02-24T13:00:22.572Z,13.88
2023-02-24T13:06:02.760Z,11.98
2023-02-24T13:11:14.928Z,12.02
2023-02-24T13:16:29.673Z,11.50
2023-02-24T13:21:33.639Z,9.70
2023-02-24T13:26:35.983Z,11.20
2023-02-24T13:31:50.857Z,13.10
2023-02-24T13:36:53.192Z,14.77
2023-02-24T13:42:07.275Z,13.23
2023-02-24T13:47:17.007Z,10.85
2023-02-24T13:52:41.624Z,12.90
2023-02-24T13:57:53.355Z,13.45
2023-02-24T14:02:56.310Z,13.48
2023-02-24T14:07:59.382Z,10.98
2023-02-24T14:13:08.130Z,14.15
2023-02-24T14:18:20.352Z,11.10
2023-02-24T14:23:34.021Z,10.18
2023-02-24T14:28:40.480Z,9.60
2023-02-24T14:33:45.006Z,9.82
2023-02-24T14:38:47.307Z,5.28
2023-02-24T14:43:51.108Z,4.20
2023-02-24T14:48:56.268Z,4.82
2023-02-24T15:07:24.088Z,4.95
2023-02-24T15:12:44.257Z,3.97
2023-02-24T15:17:50.584Z,5.50
2023-02-24T15:22:53.100Z,6.13
2023-02-24T15:28:01.052Z,5.53
2023-02-24T15:33:24.682Z,6.07
2023-02-24T15:38:34.469Z,6.13
2023-02-24T15:43:45.795Z,10.20
2023-02-24T15:53:52.301Z,9.48
2023-02-24T15:58:54.489Z,9.88
2023-02-24T16:03:57.288Z,8.95
2023-02-24T16:08:59.985Z,8.73
2023-02-24T16:14:02.560Z,11.38
2023-02-24T16:19:04.690Z,9.82
2023-02-24T16:24:06.938Z,15.48
2023-02-24T16:29:14.344Z,9.90
2023-02-24T16:34:16.821Z,59.40
2023-02-24T16:39:19.074Z,27.45
2023-02-24T16:44:23.346Z,17.63
2023-02-24T16:49:25.636Z,10.68
2023-02-24T16:54:29.483Z,13.30
2023-02-24T16:59:31.816Z,12.40
2023-02-24T17:04:34.098Z,15.65
2023-02-24T17:09:36.177Z,14.80
2023-02-24T17:14:38.676Z,12.70
2023-02-24T17:19:40.756Z,14.07
2023-02-24T17:24:59.323Z,15.70
2023-02-24T17:30:01.707Z,17.35
2023-02-24T17:35:04.080Z,14.93
2023-02-24T17:40:11.070Z,18.98
2023-02-24T17:45:14.513Z,22.48
2023-02-24T17:50:16.995Z,15.43
2023-02-24T17:55:19.429Z,21.35
2023-02-24T18:00:21.566Z,15.98
2023-02-24T18:05:23.938Z,20.00
2023-02-24T18:10:27.401Z,20.80
2023-02-24T18:15:29.841Z,25.83
2023-02-24T18:20:32.145Z,23.30
2023-02-24T18:25:34.773Z,21.55
2023-02-24T18:30:39.347Z,20.30
2023-02-24T18:35:41.574Z,19.58
2023-02-24T18:40:44.254Z,25.95
2023-02-24T18:45:46.640Z,23.85
2023-02-24T18:50:53.824Z,17.42
2023-02-24T18:56:03.691Z,22.67
2023-02-24T19:01:26.926Z,21.88
2023-02-24T19:06:30.981Z,26.20
2023-02-24T19:11:33.764Z,27.05
2023-02-24T19:16:36.860Z,23.23
2023-02-24T19:21:38.980Z,20.27
2023-02-24T19:26:43.879Z,20.95
2023-02-24T19:31:47.056Z,26.02
2023-02-24T19:36:49.577Z,23.67
2023-02-24T19:41:53.345Z,17.95
2023-02-24T19:46:55.572Z,19.90
2023-02-24T19:51:59.253Z,15.25
2023-02-24T19:57:02.094Z,19.33
2023-02-24T20:02:04.660Z,17.27
2023-02-24T20:07:07.456Z,14.23
2023-02-24T20:12:12.237Z,15.93
2023-02-24T20:17:14.721Z,15.95
2023-02-24T20:22:16.937Z,15.27
2023-02-24T20:27:19.439Z,20.88
2023-02-24T20:37:49.895Z,17.15
2023-02-24T20:42:52.117Z,16.00
2023-02-24T20:47:54.617Z,24.73
2023-02-24T20:52:57.533Z,16.83
2023-02-24T20:58:00.000Z,23.42
2023-02-24T21:03:03.546Z,15.57
2023-02-24T21:08:06.238Z,22.08
2023-02-24T21:13:08.453Z,28.83
2023-02-24T21:18:11.062Z,18.23
2023-02-24T21:23:13.605Z,19.60
2023-02-24T21:28:15.741Z,19.88
2023-02-24T21:33:18.929Z,16.65
2023-02-24T21:38:21.014Z,23.73
2023-02-24T21:43:24.395Z,16.90
2023-02-24T21:48:26.538Z,16.10
2023-02-24T21:53:30.110Z,25.70
2023-02-24T21:58:33.149Z,19.95
2023-02-24T22:03:35.344Z,28.55
2023-02-24T22:08:43.417Z,24.80
2023-02-24T22:13:46.776Z,24.92
2023-02-24T22:18:50.089Z,27.08
2023-02-24T22:23:56.384Z,22.35
2023-02-24T22:28:59.546Z,23.30
2023-02-24T22:34:01.870Z,20.42
2023-02-24T22:39:04.850Z,17.77
2023-02-24T22:44:07.287Z,15.30
2023-02-24T22:49:10.339Z,15.40
2023-02-24T22:54:12.584Z,19.27
2023-02-24T22:59:16.186Z,10.63
2023-02-24T23:04:20.325Z,13.98
2023-02-24T23:09:23.344Z,16.35
2023-02-24T23:14:27.006Z,15.23
2023-02-24T23:19:29.926Z,14.30
2023-02-24T23:24:32.034Z,12.95
2023-02-24T23:29:34.342Z,11.48
2023-02-24T23:34:37.158Z,16.33
2023-02-24T23:39:39.334Z,14.45
2023-02-24T23:44:41.541Z,10.27
2023-02-24T23:49:48.385Z,10.50
2023-02-24T23:54:52.701Z,11.55
2023-02-24T23:59:55.140Z,10.73
